Time;durP1;ratioP1;P1;durP2;ratioP2;P2;SDS_P1;SDS_P2;PMS_P1;PMS_P2;Temp;Humidity;BMP_temperature;BMP_pressure;BME280_temperature;BME280_humidity;BME280_pressure;Samples;Min_cycle;Max_cycle;Signal;HPM_P1;HPM_P2
2023/08/08 00:02:15;;;;;;;5.97;3.17;;;;;;;13.16;100.00;101394.41;5029162;28;20029;-79
2023/08/08 00:04:40;;;;;;;5.85;3.00;;;;;;;13.14;100.00;101396.34;5030274;28;20025;-78
2023/08/08 00:07:06;;;;;;;5.45;2.85;;;;;;;13.17;100.00;101398.78;5028585;28;20040;-79
2023/08/08 00:09:32;;;;;;;4.75;3.03;;;;;;;13.15;100.00;101397.19;5029120;28;20033;-79
2023/08/08 00:11:58;;;;;;;6.25;3.03;;;;;;;13.19;100.00;101393.38;5060564;28;20028;-79
2023/08/08 00:14:24;;;;;;;8.73;3.20;;;;;;;13.20;100.00;101402.13;5015026;28;20049;-79
2023/08/08 00:16:49;;;;;;;5.03;2.70;;;;;;;13.15;100.00;101392.72;5010016;28;20038;-79
2023/08/08 00:19:15;;;;;;;7.70;2.80;;;;;;;13.14;100.00;101395.50;5027051;28;20083;-78
2023/08/08 00:21:40;;;;;;;8.40;3.03;;;;;;;13.13;100.00;101399.94;5030192;28;20959;-78
2023/08/08 00:24:06;;;;;;;5.10;2.67;;;;;;;13.15;100.00;101392.72;5047373;28;20040;-78
2023/08/08 00:26:31;;;;;;;7.10;3.40;;;;;;;13.15;100.00;101395.38;5033604;28;20112;-78
2023/08/08 00:28:57;;;;;;;4.80;3.00;;;;;;;13.17;100.00;101398.78;5039513;28;20037;-79
2023/08/08 00:31:22;;;;;;;5.75;3.00;;;;;;;13.17;100.00;101401.41;5043480;28;20477;-79
2023/08/08 00:33:48;;;;;;;6.68;2.85;;;;;;;13.21;100.00;101403.81;5060554;28;20056;-78
2023/08/08 00:36:13;;;;;;;6.25;3.15;;;;;;;13.20;100.00;101395.06;5024870;28;20466;-79
2023/08/08 00:38:38;;;;;;;6.55;3.35;;;;;;;13.20;100.00;101388.94;5042487;28;20475;-78
2023/08/08 00:41:04;;;;;;;5.82;3.10;;;;;;;13.20;100.00;101386.28;5045850;28;20088;-79
2023/08/08 00:43:30;;;;;;;8.85;3.30;;;;;;;13.22;100.00;101387.03;5050375;28;20056;-78
2023/08/08 00:45:58;;;;;;;4.97;2.75;;;;;;;13.25;100.00;101384.16;5030550;28;20460;-78
2023/08/08 00:48:24;;;;;;;6.07;3.42;;;;;;;13.25;100.00;101392.09;5026664;28;20087;-78
2023/08/08 00:50:50;;;;;;;5.47;2.90;;;;;;;13.27;100.00;101384.88;5033797;28;20026;-79
2023/08/08 00:53:16;;;;;;;6.70;3.10;;;;;;;13.28;100.00;101376.00;5048405;28;20025;-79
2023/08/08 00:55:42;;;;;;;6.25;3.15;;;;;;;13.30;100.00;101376.72;5050215;28;20032;-79
2023/08/08 00:58:10;;;;;;;5.93;3.10;;;;;;;13.29;100.00;101375.88;5043524;28;20029;-78
2023/08/08 01:00:39;;;;;;;5.45;3.10;;;;;;;13.29;100.00;101372.38;5035404;28;20490;-78
2023/08/08 01:03:04;;;;;;;7.90;3.00;;;;;;;13.32;100.00;101382.72;5062106;28;20051;-78
2023/08/08 01:05:38;;;;;;;5.78;2.83;;;;;;;13.32;100.00;101382.72;5034389;28;20024;-79
2023/08/08 01:08:14;;;;;;;6.97;3.35;;;;;;;13.32;100.00;101388.84;5035736;28;20028;-79
2023/08/08 01:10:44;;;;;;;8.75;3.20;;;;;;;13.36;100.00;101386.81;5032306;28;20473;-78
2023/08/08 01:13:15;;;;;;;5.53;3.05;;;;;;;13.38;100.00;101382.25;5026634;28;20063;-79
2023/08/08 01:15:43;;;;;;;8.13;3.30;;;;;;;13.41;100.00;101382.00;5030131;28;20026;-78
2023/08/08 01:18:14;;;;;;;6.65;3.28;;;;;;;13.41;100.00;101379.38;5039357;28;20029;-78
2023/08/08 01:20:45;;;;;;;9.98;3.28;;;;;;;13.43;100.00;101374.81;5047222;28;20024;-79
2023/08/08 01:23:24;;;;;;;6.82;3.40;;;;;;;13.45;100.00;101373.72;5046363;28;20132;-79
2023/08/08 01:25:50;;;;;;;7.93;3.47;;;;;;;13.43;100.00;101374.81;5033922;28;20082;-79
2023/08/08 01:28:20;;;;;;;9.98;3.67;;;;;;;13.43;100.00;101369.50;5048081;28;20108;-78
2023/08/08 01:30:46;;;;;;;8.23;3.42;;;;;;;13.44;100.00;101368.56;5046543;28;20074;-78
2023/08/08 01:33:11;;;;;;;8.43;3.00;;;;;;;13.45;100.00;101384.28;5036845;28;20553;-79
2023/08/08 01:35:46;;;;;;;10.23;3.60;;;;;;;13.45;100.00;101379.00;5028851;28;20028;-78
2023/08/08 01:38:17;;;;;;;10.75;3.42;;;;;;;13.46;100.00;101380.69;5028875;28;20022;-78
2023/08/08 01:40:44;;;;;;;7.97;3.40;;;;;;;13.47;100.00;101377.09;5022214;28;20060;-78
2023/08/08 01:43:15;;;;;;;11.32;3.65;;;;;;;13.48;100.00;101372.63;5034116;28;20031;-78
2023/08/08 01:45:44;;;;;;;6.75;3.63;;;;;;;13.49;100.00;101369.03;5042812;28;20392;-78
2023/08/08 01:48:11;;;;;;;7.50;3.50;;;;;;;13.45;100.00;101364.94;5028594;28;20397;-78
2023/08/08 01:50:40;;;;;;;9.77;3.63;;;;;;;13.46;100.00;101359.53;5048631;28;20078;-78
2023/08/08 01:53:05;;;;;;;9.55;3.72;;;;;;;13.45;100.00;101357.00;5038122;28;20029;-78
2023/08/08 01:55:31;;;;;;;10.07;3.88;;;;;;;13.45;100.00;101362.31;5046523;28;20416;-78
2023/08/08 01:57:56;;;;;;;7.07;3.58;;;;;;;13.43;100.00;101358.94;5027980;28;20481;-78
2023/08/08 02:00:22;;;;;;;9.75;4.03;;;;;;;13.42;100.00;101357.25;5030485;28;20469;-79
2023/08/08 02:02:50;;;;;;;7.75;3.50;;;;;;;13.37;100.00;101347.03;5038849;28;20112;-78
2023/08/08 02:05:15;;;;;;;7.50;3.50;;;;;;;13.36;100.00;101344.53;5027882;28;20367;-79
2023/08/08 02:07:40;;;;;;;7.68;3.58;;;;;;;13.30;100.00;101353.78;5061513;28;20051;-79
2023/08/08 02:10:06;;;;;;;9.90;3.90;;;;;;;13.29;100.00;101345.97;5058549;28;20083;-79
2023/08/08 02:12:32;;;;;;;11.43;4.20;;;;;;;13.24;100.00;101337.56;5028676;28;20025;-78
2023/08/08 02:15:01;;;;;;;9.88;3.70;;;;;;;13.20;100.00;101351.94;5016404;28;20025;-79
2023/08/08 02:17:26;;;;;;;9.82;4.10;;;;;;;13.18;100.00;101352.91;5028328;28;20021;-79
2023/08/08 02:19:52;;;;;;;7.15;3.42;;;;;;;13.15;100.00;101346.97;5045815;28;20492;-79
2023/08/08 02:22:18;;;;;;;8.65;3.80;;;;;;;13.18;100.00;101346.75;5050020;28;20021;-79
2023/08/08 02:24:43;;;;;;;9.25;3.78;;;;;;;13.15;100.00;101339.03;5052186;28;20043;-79
2023/08/08 02:27:12;;;;;;;7.88;3.70;;;;;;;13.13;100.00;101335.69;5052804;28;20040;-79
2023/08/08 02:29:40;;;;;;;6.60;3.42;;;;;;;13.12;100.00;101337.47;5046162;28;20028;-79
2023/08/08 02:32:06;;;;;;;8.55;3.85;;;;;;;13.11;100.00;101338.44;5033181;28;20026;-79
2023/08/08 02:34:31;;;;;;;10.32;3.97;;;;;;;13.10;100.00;101326.19;5031601;28;20393;-79
2023/08/08 02:36:57;;;;;;;9.68;4.25;;;;;;;13.11;100.00;101337.59;5046675;28;20032;-78
2023/08/08 02:39:22;;;;;;;11.40;4.45;;;;;;;13.06;100.00;101330.03;5051866;28;20108;-79
2023/08/08 02:41:48;;;;;;;10.88;4.55;;;;;;;13.08;100.00;101332.56;5051472;28;20070;-79
2023/08/08 02:44:13;;;;;;;12.02;4.13;;;;;;;13.09;100.00;101321.88;5036868;28;20070;-79
2023/08/08 02:46:38;;;;;;;12.65;4.53;;;;;;;13.12;100.00;101320.78;5041776;28;20050;-79
2023/08/08 02:49:05;;;;;;;10.38;4.07;;;;;;;13.12;100.00;101319.00;5024783;28;20087;-79
2023/08/08 02:51:32;;;;;;;12.20;4.82;;;;;;;13.10;100.00;101322.72;5040595;28;20029;-78
2023/08/08 02:53:58;;;;;;;13.75;4.43;;;;;;;13.10;100.00;101315.63;5044710;28;20103;-79
2023/08/08 02:56:26;;;;;;;10.77;4.68;;;;;;;13.09;100.00;101306.00;5044985;28;20108;-78
2023/08/08 02:58:51;;;;;;;17.98;4.78;;;;;;;13.08;100.00;101312.25;5030990;28;20132;-79
2023/08/08 03:01:22;;;;;;;9.45;4.50;;;;;;;13.11;100.00;101309.38;5062304;28;20438;-79
2023/08/08 03:03:48;;;;;;;10.85;5.13;;;;;;;13.09;100.00;101303.38;5035822;28;20021;-79
2023/08/08 03:06:15;;;;;;;11.23;4.75;;;;;;;13.07;100.00;101317.66;5037712;28;20477;-79
2023/08/08 03:08:44;;;;;;;10.75;5.38;;;;;;;13.03;100.00;101318.84;5031725;28;20029;-79
2023/08/08 03:11:12;;;;;;;14.38;5.22;;;;;;;13.02;100.00;101318.03;5031490;28;20049;-78
2023/08/08 03:13:40;;;;;;;16.05;6.13;;;;;;;13.02;100.00;101320.66;5029379;28;20105;-79
2023/08/08 03:16:05;;;;;;;15.90;5.50;;;;;;;13.02;100.00;101322.47;5047144;28;20029;-79
2023/08/08 03:18:30;;;;;;;12.23;5.38;;;;;;;13.04;100.00;101321.38;5033662;28;20082;-79
2023/08/08 03:20:56;;;;;;;13.20;5.70;;;;;;;13.06;100.00;101314.19;5063804;28;20032;-78
2023/08/08 03:23:23;;;;;;;13.07;5.80;;;;;;;13.07;100.00;101321.16;5045078;28;20476;-79
2023/08/08 03:25:48;;;;;;;17.48;6.13;;;;;;;13.06;100.00;101313.34;5033318;28;20032;-79
2023/08/08 03:28:14;;;;;;;10.18;5.53;;;;;;;13.05;100.00;101296.66;5037074;28;20485;-78
2023/08/08 03:30:39;;;;;;;12.93;5.93;;;;;;;13.06;100.00;101300.13;5049909;28;20742;-79
2023/08/08 03:33:12;;;;;;;14.90;5.65;;;;;;;13.09;100.00;101305.19;5038214;28;20486;-79
2023/08/08 03:35:37;;;;;;;17.70;5.72;;;;;;;13.10;100.00;101309.50;5029613;28;20094;-78
2023/08/08 03:38:03;;;;;;;21.05;6.18;;;;;;;13.09;100.00;101305.19;5048660;28;20424;-78
2023/08/08 03:40:28;;;;;;;14.07;6.30;;;;;;;13.09;100.00;101307.81;5041317;28;20018;-78
2023/08/08 03:42:54;;;;;;;15.65;6.05;;;;;;;13.08;100.00;101306.97;5037204;28;20025;-78
2023/08/08 03:45:19;;;;;;;13.10;6.22;;;;;;;13.06;100.00;101302.78;5035225;28;20119;-79
2023/08/08 03:47:44;;;;;;;14.07;6.10;;;;;;;13.05;100.00;101309.84;5029583;28;20025;-79
2023/08/08 03:50:11;;;;;;;13.60;6.32;;;;;;;13.02;100.00;101307.44;5036078;28;20032;-79
2023/08/08 03:52:40;;;;;;;19.42;6.40;;;;;;;12.99;100.00;101304.22;5037838;28;20396;-79
2023/08/08 03:55:05;;;;;;;18.48;6.45;;;;;;;12.96;100.00;101300.00;5050507;28;20033;-79
2023/08/08 03:57:31;;;;;;;12.02;6.05;;;;;;;12.93;100.00;101297.59;5024808;28;20099;-79
2023/08/08 03:59:57;;;;;;;18.08;6.70;;;;;;;12.90;100.00;101297.84;5051235;28;20417;-79
2023/08/08 04:02:22;;;;;;;14.48;6.80;;;;;;;12.89;100.00;101300.59;5049760;28;20111;-79
2023/08/08 04:04:50;;;;;;;16.23;7.00;;;;;;;12.85;100.00;101300.00;5047253;28;20021;-79
2023/08/08 04:07:16;;;;;;;14.50;6.18;;;;;;;12.84;100.00;101299.16;5040443;28;20152;-80
2023/08/08 04:09:44;;;;;;;16.42;6.50;;;;;;;12.80;100.00;101296.84;5046720;28;20116;-79
2023/08/08 04:12:09;;;;;;;17.35;6.50;;;;;;;12.77;100.00;101294.44;5048882;28;20027;-79
2023/08/08 04:14:35;;;;;;;16.52;6.80;;;;;;;12.75;100.00;101289.25;5028900;28;20106;-79
2023/08/08 04:17:02;;;;;;;14.45;6.97;;;;;;;12.70;100.00;101295.84;5027158;28;20021;-78
2023/08/08 04:19:28;;;;;;;16.92;6.97;;;;;;;12.69;100.00;101295.00;5048341;28;20221;-79
2023/08/08 04:21:54;;;;;;;16.73;6.65;;;;;;;12.68;100.00;101295.13;5050181;28;20035;-79
2023/08/08 04:24:19;;;;;;;16.65;6.82;;;;;;;12.66;100.00;101299.69;5043403;28;20056;-79
2023/08/08 04:26:45;;;;;;;17.00;6.75;;;;;;;12.62;100.00;101303.50;5028331;28;20034;-79
2023/08/08 04:29:10;;;;;;;21.05;6.88;;;;;;;12.62;100.00;101292.97;5043872;28;20087;-79
2023/08/08 04:31:36;;;;;;;18.05;6.75;;;;;;;12.62;100.00;101292.97;5043003;28;20022;-79
2023/08/08 04:34:02;;;;;;;16.83;6.88;;;;;;;12.60;100.00;101294.88;5010718;28;20053;-79
2023/08/08 04:36:27;;;;;;;17.70;7.20;;;;;;;12.61;100.00;101286.84;5025149;28;20112;-79
2023/08/08 04:38:53;;;;;;;17.95;7.28;;;;;;;12.62;100.00;101295.59;5047127;28;20029;-79
2023/08/08 04:41:19;;;;;;;15.68;7.15;;;;;;;12.57;100.00;101289.81;5048036;28;20116;-79
2023/08/08 04:43:44;;;;;;;14.43;6.90;;;;;;;12.58;100.00;101297.63;5050410;28;20024;-79
2023/08/08 04:46:10;;;;;;;22.52;7.78;;;;;;;12.60;100.00;101306.28;5048600;28;20041;-79
2023/08/08 04:48:38;;;;;;;14.35;7.60;;;;;;;12.61;100.00;101304.47;5035887;28;20050;-79
2023/08/08 04:51:14;;;;;;;12.10;6.75;;;;;;;12.57;100.00;101303.03;5028153;28;20040;-79
2023/08/08 04:53:39;;;;;;;17.45;7.80;;;;;;;12.60;100.00;101294.88;5050490;28;20103;-79
2023/08/08 04:56:05;;;;;;;18.92;7.82;;;;;;;12.60;100.00;101301.00;5038319;28;20101;-79
2023/08/08 04:58:30;;;;;;;14.20;7.47;;;;;;;12.59;100.00;101301.09;5029456;28;20033;-79
2023/08/08 05:00:59;;;;;;;19.67;8.20;;;;;;;12.56;100.00;101299.53;5029369;28;20430;-79
2023/08/08 05:03:24;;;;;;;23.17;7.60;;;;;;;12.58;100.00;101302.06;5036308;28;20477;-79
2023/08/08 05:05:50;;;;;;;16.75;8.07;;;;;;;12.58;100.00;101297.63;5046866;28;20021;-79
2023/08/08 05:08:16;;;;;;;17.83;7.85;;;;;;;12.61;100.00;101293.91;5022884;28;20037;-79
2023/08/08 05:10:45;;;;;;;19.10;7.72;;;;;;;12.62;100.00;101300.88;5028370;28;20021;-78
2023/08/08 05:13:10;;;;;;;17.83;7.65;;;;;;;12.63;100.00;101292.84;5028772;28;20022;-79
2023/08/08 05:15:36;;;;;;;18.65;8.15;;;;;;;12.62;100.00;101292.97;5030142;28;20511;-79
2023/08/08 05:18:01;;;;;;;21.48;8.60;;;;;;;12.63;100.00;101294.63;5029592;28;20123;-79
2023/08/08 05:20:27;;;;;;;19.17;8.18;;;;;;;12.65;100.00;101298.84;5027581;28;20208;-78
2023/08/08 05:22:52;;;;;;;16.88;7.97;;;;;;;12.69;100.00;101288.88;5022264;28;20116;-79
2023/08/08 05:25:18;;;;;;;21.60;8.52;;;;;;;12.67;100.00;101289.00;5044176;28;20044;-79
2023/08/08 05:27:43;;;;;;;17.65;7.90;;;;;;;12.74;100.00;101294.66;5047229;28;20123;-79
2023/08/08 05:30:10;;;;;;;16.88;7.80;;;;;;;12.76;100.00;101301.50;5049087;28;20373;-79
2023/08/08 05:32:36;;;;;;;19.63;7.63;;;;;;;12.80;100.00;101308.22;5048341;28;20432;-79
2023/08/08 05:35:04;;;;;;;20.95;8.60;;;;;;;12.84;100.00;101298.31;5045853;28;20025;-79
2023/08/08 05:37:32;;;;;;;17.10;8.00;;;;;;;12.90;100.00;101300.47;5049109;28;20039;-79
2023/08/08 05:39:57;;;;;;;16.65;7.40;;;;;;;12.97;100.00;101304.31;5024455;28;20410;-79
2023/08/08 05:42:23;;;;;;;16.35;7.90;;;;;;;13.03;100.00;101308.28;5032648;28;20025;-79
2023/08/08 05:44:48;;;;;;;17.27;7.88;;;;;;;13.07;100.00;101309.75;5049301;28;20025;-79
2023/08/08 05:47:13;;;;;;;14.60;7.63;;;;;;;13.12;100.00;101305.78;5048034;28;20033;-80
2023/08/08 05:49:42;;;;;;;13.73;7.43;;;;;;;13.18;100.00;101307.97;5038317;28;20041;-79
2023/08/08 05:52:10;;;;;;;14.60;7.13;;;;;;;13.23;100.00;101314.72;5037777;28;20033;-79
2023/08/08 05:54:36;;;;;;;17.02;7.47;;;;;;;13.28;100.00;101312.56;5047234;28;20052;-79
2023/08/08 05:57:02;;;;;;;16.00;7.38;;;;;;;13.36;100.00;101299.59;5030679;28;20500;-79
2023/08/08 05:59:28;;;;;;;16.35;7.85;;;;;;;13.43;100.00;101311.34;5051781;28;20139;-79
2023/08/08 06:01:53;;;;;;;17.42;7.50;;;;;;;13.49;100.00;101314.34;5049313;28;20143;-79
2023/08/08 06:04:18;;;;;;;19.55;7.35;;;;;;;13.53;100.00;101306.19;5051730;28;20066;-79
2023/08/08 06:06:44;;;;;;;16.73;7.65;;;;;;;13.58;100.00;101310.13;5053064;28;20056;-80
2023/08/08 06:09:09;;;;;;;16.42;7.07;;;;;;;13.62;100.00;101306.31;5036680;28;20469;-80
2023/08/08 06:11:35;;;;;;;14.73;7.13;;;;;;;13.68;100.00;101305.81;5040839;28;20032;-79
2023/08/08 06:14:00;;;;;;;19.10;7.45;;;;;;;13.73;100.00;101308.94;5038507;28;20025;-79
2023/08/08 06:16:26;;;;;;;16.30;7.28;;;;;;;13.77;100.00;101307.72;5040223;28;20029;-79
2023/08/08 06:18:52;;;;;;;13.98;6.80;;;;;;;13.83;100.00;101314.31;5052387;28;20017;-79
2023/08/08 06:21:18;;;;;;;14.02;6.88;;;;;;;13.88;100.00;101309.50;5050975;28;20017;-79
2023/08/08 06:23:43;;;;;;;19.67;7.22;;;;;;;13.90;100.00;101312.88;5051654;28;20519;-80
2023/08/08 06:26:09;;;;;;;13.07;6.72;;;;;;;13.92;100.00;101318.03;5046226;28;20434;-79
2023/08/08 06:28:35;;;;;;;14.73;7.68;;;;;;;13.93;100.00;101320.56;5035622;28;20028;-79
2023/08/08 06:31:01;;;;;;;18.98;7.18;;;;;;;13.95;100.00;101321.28;5051284;28;20033;-79
2023/08/08 06:33:29;;;;;;;17.27;7.57;;;;;;;14.04;100.00;101322.34;5052067;28;20110;-79
2023/08/08 06:35:55;;;;;;;16.88;7.55;;;;;;;14.14;100.00;101317.16;5033903;28;20049;-79
2023/08/08 06:38:21;;;;;;;17.90;7.07;;;;;;;14.22;100.00;101320.84;5031533;28;20033;-79
2023/08/08 06:40:46;;;;;;;16.52;7.32;;;;;;;14.26;100.00;101316.97;5062479;28;20018;-80
2023/08/08 06:43:12;;;;;;;13.90;6.68;;;;;;;14.34;100.00;101313.69;5032226;28;20100;-79
2023/08/08 06:45:40;;;;;;;18.63;6.85;;;;;;;14.39;100.00;101325.59;5023327;28;20132;-79
2023/08/08 06:48:08;;;;;;;16.23;6.80;;;;;;;14.48;100.00;101312.63;5035180;28;20168;-79
2023/08/08 06:50:51;;;;;;;14.60;6.22;;;;;;;14.59;100.00;101315.19;5036486;28;20116;-79
2023/08/08 06:53:17;;;;;;;;;;;;;;;14.68;100.00;101307.31;5039979;28;20032;-79
2023/08/08 06:55:42;;;;;;;19.65;7.20;;;;;;;14.75;100.00;101318.25;5032584;28;19909;-80
2023/08/08 06:58:08;;;;;;;17.60;6.22;;;;;;;14.84;100.00;101314.00;5031903;28;20106;-79
2023/08/08 07:00:33;;;;;;;14.63;6.82;;;;;;;14.98;100.00;101314.50;5031802;28;20120;-79
2023/08/08 07:03:01;;;;;;;14.98;6.28;;;;;;;15.07;100.00;101317.34;5032574;28;20059;-79
2023/08/08 07:05:26;;;;;;;13.35;6.07;;;;;;;15.24;100.00;101325.53;5031648;28;20029;-80
2023/08/08 07:07:55;;;;;;;14.02;5.88;;;;;;;15.40;100.00;101313.59;5032333;28;20022;-80
2023/08/08 07:10:20;;;;;;;16.50;6.00;;;;;;;15.56;100.00;101320.06;5030783;28;20497;-80
2023/08/08 07:12:46;;;;;;;11.75;5.70;;;;;;;15.71;100.00;101319.75;5031792;28;20074;-79
2023/08/08 07:15:12;;;;;;;12.32;5.53;;;;;;;15.80;100.00;101311.81;5031852;28;20044;-79
2023/08/08 07:17:40;;;;;;;11.75;5.50;;;;;;;15.97;100.00;101315.63;5063411;28;20087;-79
2023/08/08 07:20:18;;;;;;;16.58;5.50;;;;;;;16.05;99.33;101312.31;5030289;28;20112;-79
2023/08/08 07:22:43;;;;;;;11.27;4.78;;;;;;;16.06;98.44;101311.31;5022909;28;20461;-78
2023/08/08 07:25:09;;;;;;;11.85;5.38;;;;;;;16.04;98.21;101311.47;5030497;28;20128;-79
2023/08/08 07:27:35;;;;;;;14.10;5.45;;;;;;;16.10;98.53;101316.22;5032052;28;20560;-79
2023/08/08 07:30:01;;;;;;;14.30;5.40;;;;;;;16.23;99.07;101316.78;5051250;28;20082;-78
2023/08/08 07:32:26;;;;;;;13.18;5.10;;;;;;;16.28;96.62;101311.88;5051312;28;20229;-78
2023/08/08 07:34:54;;;;;;;12.60;4.70;;;;;;;16.45;95.59;101312.19;5050535;28;20057;-78
2023/08/08 07:37:20;;;;;;;12.75;4.57;;;;;;;16.54;93.92;101312.19;5047047;28;20420;-79
2023/08/08 07:39:45;;;;;;;12.18;4.63;;;;;;;16.72;95.16;101309.66;5024492;28;20029;-78
2023/08/08 07:42:10;;;;;;;10.77;3.97;;;;;;;16.89;93.12;101308.13;5030587;28;20438;-78
2023/08/08 07:44:43;;;;;;;8.70;4.15;;;;;;;16.99;91.45;101305.44;5030380;28;20037;-79
2023/08/08 07:47:09;;;;;;;;;;;;;;;17.25;96.04;101311.81;5033807;28;20053;-78
2023/08/08 07:49:35;;;;;;;7.90;3.85;;;;;;;17.23;89.07;101305.78;5050168;28;19962;-79
2023/08/08 07:52:00;;;;;;;7.78;3.35;;;;;;;17.19;88.07;101315.03;5051196;28;20564;-78
2023/08/08 07:54:25;;;;;;;7.82;3.60;;;;;;;17.21;85.39;101310.38;5027414;28;20025;-78
2023/08/08 07:56:57;;;;;;;7.85;3.70;;;;;;;17.32;85.59;101315.56;5034274;28;20025;-78
2023/08/08 07:59:22;;;;;;;10.98;3.85;;;;;;;17.41;84.02;101321.81;5028700;28;20021;-80
2023/08/08 08:01:50;;;;;;;9.15;3.97;;;;;;;17.37;84.45;101326.59;5032819;28;20029;-77
2023/08/08 08:04:33;;;;;;;8.20;3.70;;;;;;;17.34;85.22;101324.22;5024170;28;20034;-77
2023/08/08 08:07:02;;;;;;;;;;;;;;;17.57;89.57;101318.50;5028941;28;20543;-78
2023/08/08 08:09:27;;;;;;;10.30;3.88;;;;;;;17.43;84.17;101330.50;5030333;28;20200;-77
2023/08/08 08:11:53;;;;;;;10.13;4.28;;;;;;;17.45;84.01;101316.06;5026806;28;20055;-78
2023/08/08 08:14:18;;;;;;;10.13;4.10;;;;;;;17.43;83.91;101315.38;5040648;28;20021;-78
2023/08/08 08:16:45;;;;;;;9.60;4.40;;;;;;;17.64;83.97;101309.81;5030763;28;20045;-78
2023/08/08 08:19:10;;;;;;;9.23;3.90;;;;;;;17.85;82.33;101314.91;5030647;28;20079;-78
2023/08/08 08:21:35;;;;;;;9.50;4.15;;;;;;;18.09;82.23;101314.34;5030633;28;20022;-78
2023/08/08 08:24:02;;;;;;;7.50;4.07;;;;;;;18.42;78.22;101312.84;5028865;28;20124;-78
2023/08/08 08:26:29;;;;;;;8.75;3.72;;;;;;;18.58;79.19;101318.31;5030768;28;20193;-77
2023/08/08 08:28:57;;;;;;;10.07;4.03;;;;;;;18.54;76.88;101311.59;5033360;28;20021;-78
2023/08/08 08:31:23;;;;;;;9.38;3.50;;;;;;;18.46;77.46;101314.22;5029520;28;20022;-77
2023/08/08 08:33:51;;;;;;;10.27;3.35;;;;;;;18.28;78.74;101310.69;5028924;28;20070;-78
2023/08/08 08:36:20;;;;;;;10.73;3.60;;;;;;;18.24;79.10;101306.66;5020254;28;20037;-77
2023/08/08 08:38:46;;;;;;;7.15;3.20;;;;;;;18.22;78.25;101313.97;5028619;28;20021;-78
2023/08/08 08:41:17;;;;;;;9.85;3.60;;;;;;;18.14;79.39;101314.72;5029922;28;20033;-77
2023/08/08 08:43:42;;;;;;;9.77;3.45;;;;;;;18.14;79.98;101312.06;5024060;28;20033;-78
2023/08/08 08:46:14;;;;;;;8.52;3.40;;;;;;;18.05;80.67;101316.47;5021909;28;20053;-77
2023/08/08 08:48:41;;;;;;;8.70;3.78;;;;;;;18.20;79.70;101322.13;5030581;28;20055;-78
2023/08/08 08:51:06;;;;;;;5.43;3.13;;;;;;;18.10;77.04;101316.88;5029115;28;20037;-78
2023/08/08 08:53:32;;;;;;;9.32;3.28;;;;;;;18.13;79.39;101315.72;5043778;28;20029;-77
2023/08/08 08:55:58;;;;;;;6.35;2.90;;;;;;;18.23;79.24;101312.97;5048892;28;20033;-78
2023/08/08 08:58:25;;;;;;;6.35;2.58;;;;;;;18.04;76.48;101320.13;5028561;28;20409;-77
2023/08/08 09:00:51;;;;;;;5.57;2.58;;;;;;;17.96;76.51;101313.84;5025301;28;20029;-77
2023/08/08 09:03:19;;;;;;;5.13;2.30;;;;;;;17.98;76.15;101323.38;5020381;28;20067;-78
2023/08/08 09:05:45;;;;;;;7.07;2.40;;;;;;;17.88;76.70;101325.25;5023380;28;20032;-77
2023/08/08 09:08:11;;;;;;;6.15;2.47;;;;;;;17.81;76.92;101330.34;5033580;28;20029;-77
2023/08/08 09:10:40;;;;;;;7.88;2.40;;;;;;;17.67;76.75;101330.00;5036712;28;20060;-77
2023/08/08 09:13:09;;;;;;;7.63;2.60;;;;;;;17.69;76.84;101328.88;5028910;28;20041;-78
2023/08/08 09:15:34;;;;;;;10.15;2.70;;;;;;;17.59;77.54;101329.84;5029994;28;20040;-77
2023/08/08 09:18:00;;;;;;;6.75;2.63;;;;;;;17.54;77.32;101331.13;5028333;28;20017;-77
2023/08/08 09:20:30;;;;;;;7.20;2.65;;;;;;;17.51;78.42;101328.78;5023536;28;20032;-77
2023/08/08 09:22:56;;;;;;;6.65;2.72;;;;;;;17.44;78.29;101332.16;5016854;28;20415;-77
2023/08/08 09:25:23;;;;;;;7.88;2.88;;;;;;;17.37;78.12;101323.94;5028698;28;20104;-77
2023/08/08 09:27:50;;;;;;;6.55;2.42;;;;;;;17.33;78.15;101327.88;5030790;28;20025;-77
2023/08/08 09:30:17;;;;;;;8.15;2.70;;;;;;;17.30;78.06;101329.97;5029990;28;20088;-77
2023/08/08 09:32:45;;;;;;;7.93;2.75;;;;;;;17.44;79.15;101333.00;5027451;28;20029;-78
2023/08/08 09:35:10;;;;;;;9.43;3.78;;;;;;;17.67;80.10;101327.34;5028101;28;20402;-77
2023/08/08 09:37:39;;;;;;;8.75;3.08;;;;;;;17.84;80.29;101334.53;5028212;28;20029;-77
2023/08/08 09:40:07;;;;;;;5.88;3.08;;;;;;;18.07;79.58;101335.81;5027279;28;20055;-78
2023/08/08 09:42:35;;;;;;;10.52;4.13;;;;;;;18.09;77.57;101333.84;5038076;28;20120;-77
2023/08/08 09:45:02;;;;;;;7.55;3.75;;;;;;;18.08;75.63;101336.66;5028552;28;20025;-77
2023/08/08 09:47:36;;;;;;;10.68;3.83;;;;;;;18.09;77.54;101328.50;5026442;28;20109;-78
2023/08/08 09:50:06;;;;;;;7.60;3.05;;;;;;;18.19;77.38;101339.09;5009171;28;20556;-77
2023/08/08 09:52:33;;;;;;;10.95;3.92;;;;;;;18.25;75.14;101337.63;5009130;28;20022;-77
2023/08/08 09:54:59;;;;;;;8.68;3.47;;;;;;;18.33;75.63;101332.38;5023572;28;20040;-77
2023/08/08 09:57:26;;;;;;;7.05;3.15;;;;;;;18.46;76.44;101327.53;5018934;28;20512;-77
2023/08/08 09:59:55;;;;;;;6.35;3.13;;;;;;;18.61;76.14;101326.00;5028649;28;20032;-77
2023/08/08 10:02:21;;;;;;;12.05;3.58;;;;;;;18.86;74.40;101320.91;5028204;28;20033;-77
2023/08/08 10:04:47;;;;;;;6.57;2.58;;;;;;;18.99;71.76;101321.31;5028549;28;20385;-76
2023/08/08 10:07:15;;;;;;;6.22;2.47;;;;;;;19.18;70.16;101325.59;5027385;28;20079;-77
2023/08/08 10:09:40;;;;;;;6.00;2.42;;;;;;;19.52;70.37;101313.09;5028922;28;20029;-77
2023/08/08 10:12:09;;;;;;;6.70;2.40;;;;;;;19.65;71.70;101336.72;5031649;28;20037;-77
2023/08/08 10:14:39;;;;;;;3.10;1.80;;;;;;;19.70;67.35;101327.25;5026606;28;20057;-76
2023/08/08 10:17:06;;;;;;;5.70;2.10;;;;;;;20.00;67.71;101317.78;5029144;28;20025;-77
2023/08/08 10:19:32;;;;;;;5.85;2.25;;;;;;;20.13;66.31;101328.03;5028953;28;20470;-77
2023/08/08 10:22:03;;;;;;;6.25;2.60;;;;;;;20.19;65.27;101315.84;5026966;28;20021;-78
2023/08/08 10:24:34;;;;;;;4.43;2.40;;;;;;;20.19;65.43;101318.53;5027464;28;20029;-78
2023/08/08 10:27:01;;;;;;;4.40;2.22;;;;;;;19.99;65.62;101321.47;5033573;28;20478;-77
2023/08/08 10:29:31;;;;;;;5.10;2.03;;;;;;;19.94;67.16;101322.97;5028992;28;20341;-78
2023/08/08 10:32:01;;;;;;;3.85;2.00;;;;;;;20.05;67.06;101320.00;5021949;28;20084;-78
2023/08/08 10:34:47;;;;;;;3.97;1.65;;;;;;;20.08;65.98;101321.50;5035402;28;20025;-77
2023/08/08 10:37:14;;;;;;;5.40;2.00;;;;;;;19.81;63.44;101326.09;5032199;28;20041;-77
2023/08/08 10:39:53;;;;;;;5.28;1.90;;;;;;;19.60;64.39;101329.19;5035241;28;20103;-78
2023/08/08 10:42:19;;;;;;;4.68;1.88;;;;;;;19.21;64.53;101331.47;5028810;28;20540;-77
2023/08/08 10:44:54;;;;;;;5.05;1.80;;;;;;;18.92;66.46;101339.78;5029907;28;20482;-77
2023/08/08 10:47:31;;;;;;;5.63;2.00;;;;;;;18.75;68.53;101337.97;5032690;28;20068;-77
2023/08/08 10:50:05;;;;;;;3.72;1.90;;;;;;;18.38;69.29;101344.25;5031103;28;20080;-78
2023/08/08 10:52:31;;;;;;;6.07;1.85;;;;;;;18.23;70.88;101340.47;5025797;28;20049;-78
2023/08/08 10:54:57;;;;;;;3.45;1.85;;;;;;;18.10;72.38;101340.84;5034199;28;20102;-78
2023/08/08 10:57:27;;;;;;;5.45;2.17;;;;;;;18.16;73.35;101334.06;5037079;28;20112;-77
2023/08/08 10:59:53;;;;;;;5.82;2.35;;;;;;;18.16;71.69;101324.25;5037651;28;20029;-77
2023/08/08 11:02:21;;;;;;;5.38;2.28;;;;;;;18.47;73.01;101319.38;5031300;28;20084;-78
2023/08/08 11:04:49;;;;;;;4.40;2.15;;;;;;;18.85;70.37;101314.72;5030269;28;20026;-78
2023/08/08 11:07:15;;;;;;;5.78;2.33;;;;;;;19.30;70.29;101311.84;5031487;28;20121;-78
2023/08/08 11:09:42;;;;;;;5.45;2.15;;;;;;;19.61;67.89;101305.97;5026315;28;20056;-78
2023/08/08 11:12:17;;;;;;;3.58;1.95;;;;;;;19.64;64.68;101311.88;5028109;28;20125;-78
2023/08/08 11:14:43;;;;;;;5.05;2.22;;;;;;;19.66;65.41;101306.38;5036003;28;20021;-77
2023/08/08 11:17:11;;;;;;;4.05;1.70;;;;;;;19.92;65.25;101303.59;5030626;28;20357;-77